| Date | Time | Temp. (oF) | Dew Point (oF) | Rel. Hum. (%) | Press. (in.) | Wind Dir. | Wind Speed (mph) | Hourly Rainfall (in.) |
|
|---|---|---|---|---|---|---|---|---|---|
| 1 | 01/06 | 00:00 | 26 | 25 | 98 | 29.97 | WNW | 0 | 0.00 |
| 2 | 01/05 | 23:00 | 26 | 25 | 98 | 29.97 | WNW | 0 | 0.01 |
| 3 | 01/05 | 22:00 | 27 | 26 | 96 | 29.99 | WNW | 0 | 0.00 |
| 4 | 01/05 | 21:00 | 28 | 24 | 86 | 29.99 | WNW | 1 | 0.00 |
| 5 | 01/05 | 20:00 | 30 | 18 | 62 | 29.98 | WNW | 3 | 0.00 |
| 6 | 01/05 | 19:00 | 30 | 16 | 58 | 29.97 | WNW | 4 | 0.00 |
| 7 | 01/05 | 18:00 | 30 | 14 | 51 | 29.96 | WNW | 4 | 0.00 |
| 8 | 01/05 | 17:00 | 30 | 13 | 49 | 29.97 | WNW | 4 | 0.00 |
| 9 | 01/05 | 16:00 | 30 | 12 | 48 | 29.96 | WNW | 4 | 0.00 |
| 10 | 01/05 | 15:00 | 29 | 10 | 46 | 29.96 | WNW | 7 | 0.00 |
| 11 | 01/05 | 14:00 | 30 | 12 | 47 | 29.96 | WNW | 5 | 0.00 |
| 12 | 01/05 | 13:00 | 29 | 12 | 49 | 29.97 | WNW | 2 | 0.00 |
| 13 | 01/05 | 12:00 | 29 | 11 | 47 | 30.00 | WNW | 5 | 0.00 |
| 14 | 01/05 | 11:00 | 27 | 11 | 51 | 30.04 | WNW | 8 | 0.00 |
| 15 | 01/05 | 10:00 | 26 | 10 | 52 | 30.05 | WNW | 1 | 0.00 |
| 16 | 01/05 | 09:00 | 25 | 11 | 55 | 30.05 | WNW | 6 | 0.00 |
| 17 | 01/05 | 08:00 | 24 | 11 | 58 | 30.02 | WNW | 2 | 0.00 |
| 18 | 01/05 | 07:00 | 23 | 11 | 62 | 30.01 | WNW | 3 | 0.00 |
| 19 | 01/05 | 06:00 | 23 | 10 | 58 | 29.98 | WNW | 1 | 0.00 |
| 20 | 01/05 | 05:00 | 24 | 8 | 52 | 29.97 | WNW | 1 | 0.00 |
| 21 | 01/05 | 04:00 | 25 | 9 | 51 | 29.94 | WNW | 5 | 0.00 |
| 22 | 01/05 | 03:00 | 26 | 9 | 50 | 29.93 | WNW | 7 | 0.00 |
| 23 | 01/05 | 02:00 | 26 | 9 | 49 | 29.90 | WNW | 5 | 0.00 |
| 24 | 01/05 | 01:00 | 28 | 9 | 45 | 29.87 | WNW | 7 | 0.00 |